Time;durP1;ratioP1;P1;durP2;ratioP2;P2;SDS_P1;SDS_P2;PMS_P1;PMS_P2;Temp;Humidity;BMP_temperature;BMP_pressure;BME280_temperature;BME280_humidity;BME280_pressure;Samples;Min_cycle;Max_cycle;Signal;HPM_P1;HPM_P2
2021/10/26 06:47:14;;;;;;;3.55;1.10;;;19.80;50.60;;;;;;4899972;29;20052;-63
2021/10/26 06:49:40;;;;;;;1.90;0.95;;;19.80;50.60;;;;;;4917252;29;20053;-63
2021/10/26 06:52:07;;;;;;;2.97;1.02;;;19.80;50.60;;;;;;4900334;29;20043;-62
2021/10/26 06:54:32;;;;;;;3.30;1.10;;;19.80;50.70;;;;;;4908187;29;20040;-64
2021/10/26 06:56:58;;;;;;;2.67;0.98;;;19.80;50.70;;;;;;4916036;29;20196;-63
2021/10/26 06:59:23;;;;;;;5.72;1.60;;;19.80;50.70;;;;;;4917029;29;20372;-63
2021/10/26 07:01:49;;;;;;;4.93;1.10;;;19.80;50.90;;;;;;4912709;29;20471;-63
2021/10/26 07:04:14;;;;;;;3.17;1.42;;;19.90;50.70;;;;;;4895595;29;20060;-63
2021/10/26 07:06:40;;;;;;;2.30;0.82;;;19.90;50.70;;;;;;4900551;29;20035;-62
2021/10/26 07:09:05;;;;;;;3.75;1.25;;;20.00;50.80;;;;;;4916100;29;20036;-63
2021/10/26 07:11:31;;;;;;;3.65;1.25;;;20.00;50.80;;;;;;4910539;29;20604;-63
2021/10/26 07:13:57;;;;;;;4.22;1.20;;;20.00;50.70;;;;;;4906355;29;20032;-64
2021/10/26 07:16:22;;;;;;;3.30;1.00;;;20.00;50.60;;;;;;4915843;29;20051;-63
2021/10/26 07:18:48;;;;;;;5.65;1.30;;;20.00;50.70;;;;;;4915755;29;20035;-65
2021/10/26 07:21:14;;;;;;;4.90;1.17;;;20.10;50.60;;;;;;4912493;29;20039;-65
2021/10/26 07:23:40;;;;;;;4.78;1.25;;;20.10;50.50;;;;;;4910360;29;20060;-65
2021/10/26 07:26:06;;;;;;;2.65;1.05;;;20.20;50.50;;;;;;4916061;29;20027;-63
2021/10/26 07:28:31;;;;;;;2.88;1.30;;;20.20;50.60;;;;;;4915687;29;20123;-64
2021/10/26 07:30:57;;;;;;;4.00;1.45;;;20.20;50.60;;;;;;4915918;29;20482;-64
2021/10/26 07:33:26;;;;;;;2.90;1.15;;;20.20;50.60;;;;;;4906370;29;20051;-63
2021/10/26 07:35:54;;;;;;;4.03;1.27;;;20.20;50.50;;;;;;4915969;29;20025;-64
2021/10/26 07:38:29;;;;;;;4.53;1.70;;;20.30;50.50;;;;;;4915834;29;20123;-61
2021/10/26 07:40:56;;;;;;;2.92;1.20;;;20.30;50.60;;;;;;4911433;29;20035;-63
2021/10/26 07:43:22;;;;;;;3.65;0.90;;;20.30;50.50;;;;;;4904867;29;20381;-62
2021/10/26 07:45:49;;;;;;;4.28;1.42;;;20.30;50.50;;;;;;4915580;29;20052;-62
2021/10/26 07:48:16;;;;;;;4.20;1.33;;;20.40;50.50;;;;;;4914744;29;20411;-63
2021/10/26 07:50:43;;;;;;;3.35;1.05;;;20.40;50.50;;;;;;4915633;29;20170;-61
2021/10/26 07:53:09;;;;;;;3.30;1.00;;;20.40;50.50;;;;;;4906341;29;20111;-63
2021/10/26 07:55:35;;;;;;;2.00;0.90;;;20.40;50.50;;;;;;4915304;29;20091;-63
2021/10/26 07:58:01;;;;;;;3.80;1.17;;;20.40;50.50;;;;;;4915539;29;20036;-62
2021/10/26 08:00:27;;;;;;;2.67;1.05;;;20.50;50.50;;;;;;4914314;29;20036;-62
2021/10/26 08:02:52;;;;;;;3.60;1.42;;;20.50;50.40;;;;;;4906366;29;20028;-63
2021/10/26 08:05:19;;;;;;;2.95;1.00;;;20.50;50.40;;;;;;4915199;29;20391;-63
2021/10/26 08:07:44;;;;;;;2.53;0.95;;;20.50;50.40;;;;;;4915206;29;20032;-63
2021/10/26 08:10:10;;;;;;;3.72;1.20;;;20.50;50.40;;;;;;4915156;29;20531;-62
2021/10/26 08:12:36;;;;;;;2.22;0.95;;;20.60;50.40;;;;;;4905831;29;20028;-63
2021/10/26 08:15:02;;;;;;;2.95;1.13;;;20.60;50.40;;;;;;4915046;29;20051;-62
2021/10/26 08:17:28;;;;;;;3.70;1.35;;;20.60;50.30;;;;;;4915089;29;20083;-62
2021/10/26 08:19:54;;;;;;;2.03;0.82;;;20.60;50.40;;;;;;4914183;29;20114;-63
2021/10/26 08:22:21;;;;;;;4.45;1.15;;;20.60;50.50;;;;;;4904966;29;20475;-63
2021/10/26 08:24:50;;;;;;;2.78;0.95;;;20.60;50.50;;;;;;4914669;29;20036;-64
2021/10/26 08:27:17;;;;;;;4.13;1.45;;;20.70;50.70;;;;;;4910494;29;20039;-62
2021/10/26 08:29:50;;;;;;;5.93;1.40;;;20.70;50.50;;;;;;4914932;29;20028;-63
2021/10/26 08:37:38;;;;;;;5.80;1.15;;;20.70;50.70;;;;;;4915061;29;20143;-63
2021/10/26 08:40:05;;;;;;;4.40;1.30;;;20.70;50.70;;;;;;4910678;29;20102;-61
2021/10/26 08:42:31;;;;;;;3.08;1.00;;;20.80;50.70;;;;;;4906489;29;20136;-61
2021/10/26 08:44:57;;;;;;;3.17;1.00;;;20.70;50.70;;;;;;4914437;29;20040;-62
2021/10/26 08:47:23;;;;;;;2.88;1.20;;;20.80;50.70;;;;;;4914221;29;20036;-62
2021/10/26 08:49:51;;;;;;;5.72;1.05;;;20.90;50.60;;;;;;4914761;29;20047;-63
2021/10/26 08:52:19;;;;;;;3.70;1.30;;;20.80;50.70;;;;;;4906488;29;20384;-62
2021/10/26 08:54:46;;;;;;;3.53;1.10;;;20.90;50.60;;;;;;4907474;29;20498;-62
2021/10/26 08:57:11;;;;;;;3.58;1.20;;;20.90;50.70;;;;;;4914788;29;20039;-62
2021/10/26 08:59:37;;;;;;;4.70;1.30;;;20.90;50.60;;;;;;4914117;29;20036;-63
2021/10/26 09:02:04;;;;;;;3.33;1.45;;;20.90;50.80;;;;;;4909223;29;20032;-62
2021/10/26 09:04:32;;;;;;;2.25;0.88;;;20.90;50.60;;;;;;4911094;29;20044;-63
2021/10/26 09:07:08;;;;;;;2.35;0.90;;;20.90;50.60;;;;;;4914678;29;20028;-63
2021/10/26 09:09:37;;;;;;;4.28;1.30;;;20.90;50.70;;;;;;4914676;29;20032;-63
2021/10/26 09:17:51;;;;;;;2.38;1.20;;;20.90;50.70;;;;;;4912000;29;20044;-62
2021/10/26 09:20:24;;;;;;;3.65;1.20;;;21.00;50.80;;;;;;4914056;29;20028;-62
2021/10/26 09:22:51;;;;;;;4.07;0.93;;;20.90;50.80;;;;;;4902509;29;20074;-63
2021/10/26 09:25:20;;;;;;;3.90;1.63;;;20.90;50.70;;;;;;4914485;29;20075;-63
2021/10/26 09:27:46;;;;;;;6.13;1.40;;;20.90;50.70;;;;;;4910684;29;20103;-63
2021/10/26 09:30:15;;;;;;;2.15;0.95;;;20.90;50.70;;;;;;4915606;29;20124;-62
2021/10/26 09:32:44;;;;;;;3.25;1.30;;;21.00;50.80;;;;;;4904734;29;20519;-63
2021/10/26 09:35:19;;;;;;;4.10;1.10;;;21.00;50.70;;;;;;4915874;29;20506;-61
2021/10/26 09:37:52;;;;;;;3.38;1.13;;;21.00;50.70;;;;;;4917395;29;20114;-63
2021/10/26 09:40:18;;;;;;;3.15;1.15;;;21.00;50.60;;;;;;4917730;29;20040;-62
2021/10/26 09:42:49;;;;;;;4.05;1.02;;;21.00;50.60;;;;;;4908136;29;20540;-62
2021/10/26 09:45:24;;;;;;;3.50;1.20;;;21.00;50.60;;;;;;4916759;29;20516;-62
2021/10/26 09:47:54;;;;;;;3.83;1.20;;;21.00;50.60;;;;;;4915711;29;20063;-63
2021/10/26 09:50:20;;;;;;;3.10;1.17;;;21.00;50.60;;;;;;4915903;29;20042;-61
2021/10/26 09:52:49;;;;;;;2.88;1.23;;;21.00;50.60;;;;;;4908939;29;20543;-61
2021/10/26 09:55:21;;;;;;;2.65;1.13;;;21.10;50.60;;;;;;4917338;29;20043;-62
2021/10/26 09:58:14;;;;;;;2.67;1.20;;;21.10;50.40;;;;;;4917805;29;20288;-63
2021/10/26 10:00:44;;;;;;;3.20;0.93;;;21.10;50.50;;;;;;4912095;29;20040;-61
2021/10/26 10:03:12;;;;;;;2.28;0.85;;;21.20;50.70;;;;;;4908225;29;20127;-60
2021/10/26 10:05:41;;;;;;;2.42;1.13;;;21.20;50.70;;;;;;4917546;29;20044;-60
2021/10/26 10:08:23;;;;;;;2.67;1.20;;;21.20;50.60;;;;;;4917136;29;20035;-60
2021/10/26 10:11:07;;;;;;;3.10;1.10;;;21.20;50.60;;;;;;4915777;29;20028;-67
2021/10/26 10:13:40;;;;;;;5.13;1.40;;;21.20;50.60;;;;;;4905865;29;20099;-61
2021/10/26 10:16:10;;;;;;;3.42;1.30;;;21.20;50.60;;;;;;4913834;29;20040;-61
2021/10/26 10:18:36;;;;;;;4.20;1.33;;;21.20;50.60;;;;;;4917874;29;20127;-61
2021/10/26 10:21:02;;;;;;;3.40;1.20;;;21.20;50.60;;;;;;4917404;29;20036;-61
2021/10/26 10:23:29;;;;;;;4.65;1.40;;;21.20;50.60;;;;;;4908123;29;20046;-61
2021/10/26 10:25:57;;;;;;;5.00;0.95;;;21.20;50.60;;;;;;4915539;29;20526;-60
2021/10/26 10:28:28;;;;;;;2.78;1.13;;;21.20;50.70;;;;;;4916842;29;20115;-60
2021/10/26 10:30:57;;;;;;;2.72;0.90;;;21.20;50.60;;;;;;4916902;29;20495;-60
2021/10/26 10:33:23;;;;;;;2.55;1.05;;;21.20;50.50;;;;;;4908253;29;20068;-61
2021/10/26 10:35:54;;;;;;;3.83;1.40;;;21.20;50.50;;;;;;4916966;29;20082;-60
2021/10/26 10:38:29;;;;;;;3.75;1.10;;;21.20;50.70;;;;;;4915462;29;20487;-60
2021/10/26 10:41:21;;;;;;;2.80;0.90;;;21.30;50.40;;;;;;4916592;29;20087;-61
2021/10/26 10:43:47;;;;;;;2.97;0.93;;;21.30;50.50;;;;;;4908947;29;20119;-61
2021/10/26 10:46:42;;;;;;;2.97;1.02;;;21.40;50.30;;;;;;4916416;29;20132;-61
2021/10/26 10:49:20;;;;;;;2.17;1.00;;;21.40;50.30;;;;;;4914435;29;20036;-61
2021/10/26 10:51:59;;;;;;;2.72;0.80;;;21.40;50.50;;;;;;4906358;29;20524;-61
2021/10/26 10:54:37;;;;;;;3.53;1.20;;;21.40;50.40;;;;;;4911619;29;20040;-61
2021/10/26 10:57:28;;;;;;;3.05;1.13;;;21.40;50.50;;;;;;4916269;29;20028;-61
2021/10/26 10:59:55;;;;;;;2.72;1.08;;;21.40;50.40;;;;;;4916144;29;20039;-61
2021/10/26 11:02:47;;;;;;;3.22;1.13;;;21.40;50.40;;;;;;4901163;29;20040;-60
2021/10/26 11:05:35;;;;;;;4.22;1.13;;;21.40;50.50;;;;;;4914069;29;20693;-60
2021/10/26 11:08:36;;;;;;;3.47;1.23;;;21.30;50.50;;;;;;4914598;29;20040;-59
2021/10/26 11:11:03;;;;;;;1.63;0.70;;;21.30;50.50;;;;;;4915943;29;20032;-60
2021/10/26 11:13:31;;;;;;;5.40;1.00;;;21.40;50.50;;;;;;4901378;29;20048;-60
2021/10/26 11:15:59;;;;;;;2.30;0.77;;;21.40;50.40;;;;;;4916294;29;20028;-61
2021/10/26 11:18:46;;;;;;;3.42;0.88;;;21.40;50.50;;;;;;4915931;29;20499;-60
2021/10/26 11:21:21;;;;;;;2.05;0.85;;;21.40;50.60;;;;;;4910109;29;20167;-60
2021/10/26 11:23:48;;;;;;;2.10;0.80;;;21.40;50.60;;;;;;4907335;29;20032;-60
2021/10/26 11:26:18;;;;;;;3.58;1.17;;;21.40;50.50;;;;;;4916020;29;20090;-60
2021/10/26 11:28:52;;;;;;;3.17;1.00;;;21.40;50.60;;;;;;4915616;29;20066;-61
2021/10/26 11:31:23;;;;;;;7.25;1.25;;;21.40;50.60;;;;;;4909608;29;20075;-61
2021/10/26 11:33:53;;;;;;;2.63;0.80;;;21.40;50.60;;;;;;4907218;29;20035;-60
2021/10/26 11:36:20;;;;;;;1.50;0.77;;;21.40;50.60;;;;;;4914371;29;20040;-60
2021/10/26 11:38:50;;;;;;;2.92;1.13;;;21.40;50.60;;;;;;4915381;29;20036;-61
2021/10/26 11:41:21;;;;;;;3.28;0.77;;;21.50;50.50;;;;;;4909738;29;20040;-60
2021/10/26 11:43:50;;;;;;;2.40;0.85;;;21.50;50.40;;;;;;4906509;29;20373;-60
2021/10/26 11:46:38;;;;;;;2.28;0.70;;;21.50;50.50;;;;;;4915490;29;20048;-60
2021/10/26 11:49:19;;;;;;;4.20;0.85;;;21.50;50.50;;;;;;4912441;29;20514;-60
2021/10/26 11:51:49;;;;;;;2.58;1.10;;;21.50;50.50;;;;;;4909904;29;20039;-60
2021/10/26 11:54:24;;;;;;;1.25;0.70;;;21.50;50.50;;;;;;4905471;29;20028;-61
2021/10/26 11:56:50;;;;;;;2.42;1.00;;;21.50;50.60;;;;;;4912236;29;20436;-59
2021/10/26 11:59:19;;;;;;;3.28;1.00;;;21.50;50.60;;;;;;4915353;29;20032;-62
2021/10/26 12:01:59;;;;;;;1.60;0.80;;;21.50;50.60;;;;;;4903137;29;20547;-61
2021/10/26 12:04:31;;;;;;;3.28;0.98;;;21.50;50.50;;;;;;4909770;29;20686;-61
2021/10/26 12:07:02;;;;;;;4.15;1.08;;;21.50;50.60;;;;;;4915131;29;20035;-60
2021/10/26 12:09:49;;;;;;;2.13;0.85;;;21.50;50.60;;;;;;4911501;29;20044;-60
2021/10/26 12:12:17;;;;;;;2.70;1.00;;;21.50;50.50;;;;;;4915199;29;20119;-60
2021/10/26 12:14:46;;;;;;;1.08;0.57;;;21.50;50.60;;;;;;4915320;29;20032;-60
2021/10/26 12:17:22;;;;;;;2.08;0.80;;;21.50;50.50;;;;;;4914938;29;20032;-61
2021/10/26 12:20:24;;;;;;;4.55;0.90;;;21.50;50.60;;;;;;4915209;29;20085;-61
2021/10/26 12:22:58;;;;;;;3.65;1.15;;;21.50;50.60;;;;;;4912312;29;20032;-60
2021/10/26 12:25:44;;;;;;;;;;;21.50;50.50;;;;;;4913853;29;20059;-60
2021/10/26 12:28:11;;;;;;;1.58;0.65;;;21.50;50.40;;;;;;4913152;29;19915;-61
2021/10/26 12:30:42;;;;;;;2.42;0.90;;;21.60;50.50;;;;;;4912301;29;20028;-61
2021/10/26 12:33:16;;;;;;;3.35;1.00;;;21.60;50.50;;;;;;4911995;29;20419;-61
2021/10/26 12:35:57;;;;;;;3.38;0.90;;;21.60;50.40;;;;;;4912584;29;20467;-60
2021/10/26 12:38:42;;;;;;;3.42;0.98;;;21.60;50.40;;;;;;4913987;29;20120;-61
2021/10/26 12:41:23;;;;;;;2.25;0.75;;;21.60;50.30;;;;;;4916481;29;20530;-60
2021/10/26 12:44:00;;;;;;;2.58;0.80;;;21.60;50.40;;;;;;4916337;29;20040;-61
2021/10/26 12:46:27;;;;;;;2.10;0.77;;;21.50;50.50;;;;;;4916492;29;20139;-61
2021/10/26 12:49:08;;;;;;;2.70;0.90;;;21.50;50.40;;;;;;4916759;29;20040;-61
2021/10/26 12:51:33;;;;;;;2.25;0.80;;;21.50;50.40;;;;;;4916201;29;20081;-61
2021/10/26 12:54:12;;;;;;;1.70;0.98;;;21.60;50.40;;;;;;4916595;29;20060;-60
2021/10/26 12:56:54;;;;;;;2.03;0.77;;;21.50;50.50;;;;;;4916415;29;20156;-60
2021/10/26 12:59:25;;;;;;;1.50;0.80;;;21.50;50.50;;;;;;4916504;29;20083;-61
2021/10/26 13:01:59;;;;;;;2.58;0.82;;;21.50;50.50;;;;;;4916339;29;20420;-60
2021/10/26 13:04:25;;;;;;;2.20;0.70;;;21.50;50.60;;;;;;4916703;29;20037;-60
2021/10/26 13:07:02;;;;;;;1.13;0.65;;;21.50;50.40;;;;;;4919990;29;20029;-60
2021/10/26 13:09:59;;;;;;;5.00;1.10;;;21.50;50.40;;;;;;4919879;29;20032;-60
2021/10/26 13:12:30;;;;;;;2.35;0.90;;;21.50;50.40;;;;;;4919555;29;20080;-60
2021/10/26 13:15:02;;;;;;;2.53;0.88;;;21.50;50.40;;;;;;4919839;29;20032;-60
2021/10/26 13:17:41;;;;;;;2.42;0.90;;;21.50;50.50;;;;;;4919888;29;20028;-60
2021/10/26 13:20:47;;;;;;;2.88;0.70;;;21.50;50.50;;;;;;4919668;29;20024;-60
2021/10/26 13:23:25;;;;;;;2.03;0.80;;;21.50;50.50;;;;;;4919856;29;20396;-60
2021/10/26 13:25:57;;;;;;;4.45;1.20;;;21.50;50.50;;;;;;4919473;29;20040;-60
2021/10/26 13:28:34;;;;;;;3.58;0.80;;;21.50;50.40;;;;;;4919476;29;20391;-60
2021/10/26 13:31:09;;;;;;;2.25;0.80;;;21.50;50.50;;;;;;4919706;29;20036;-60
2021/10/26 13:33:39;;;;;;;1.83;0.70;;;21.50;50.50;;;;;;4919540;29;20429;-60
2021/10/26 13:36:06;;;;;;;2.55;0.70;;;21.50;50.40;;;;;;4919574;29;20149;-60
2021/10/26 13:38:33;;;;;;;2.65;0.90;;;21.50;50.40;;;;;;4919344;29;20043;-60
2021/10/26 13:41:00;;;;;;;1.83;0.80;;;21.50;50.40;;;;;;4919411;29;20028;-60
2021/10/26 13:43:26;;;;;;;1.95;0.70;;;21.50;50.40;;;;;;4919170;29;20016;-60
2021/10/26 13:45:58;;;;;;;1.30;0.60;;;21.50;50.40;;;;;;4919039;29;20456;-60
2021/10/26 13:48:24;;;;;;;1.80;0.57;;;21.50;50.30;;;;;;4919140;29;20377;-60
2021/10/26 13:50:50;;;;;;;3.08;0.95;;;21.50;50.30;;;;;;4918988;29;20024;-59
2021/10/26 13:53:16;;;;;;;3.35;1.08;;;21.50;50.30;;;;;;4919072;29;20542;-60
2021/10/26 13:55:43;;;;;;;4.68;0.95;;;21.50;50.30;;;;;;4918864;29;20119;-60
2021/10/26 13:58:10;;;;;;;2.53;0.93;;;21.50;50.30;;;;;;4919184;29;20047;-61
2021/10/26 14:00:39;;;;;;;2.20;0.82;;;21.50;50.40;;;;;;4918385;29;20060;-60
2021/10/26 14:03:08;;;;;;;0.82;0.60;;;21.50;50.30;;;;;;4917585;29;20063;-60
2021/10/26 14:05:36;;;;;;;4.30;0.90;;;21.50;50.30;;;;;;4907757;29;20576;-60
2021/10/26 14:08:03;;;;;;;1.13;0.55;;;21.50;50.20;;;;;;4900873;29;20032;-59
2021/10/26 14:10:28;;;;;;;2.13;0.70;;;21.50;50.20;;;;;;4917848;29;20082;-60
2021/10/26 14:12:54;;;;;;;2.63;1.08;;;21.50;50.30;;;;;;4918812;29;20020;-60
2021/10/26 14:15:20;;;;;;;3.45;0.93;;;21.50;50.30;;;;;;4918698;29;20099;-61
2021/10/26 14:17:46;;;;;;;1.90;0.70;;;21.50;50.40;;;;;;4917605;29;20280;-62
2021/10/26 14:20:39;;;;;;;1.90;0.70;;;21.50;50.40;;;;;;4918537;29;20028;-61
2021/10/26 14:23:04;;;;;;;2.95;0.73;;;21.50;50.30;;;;;;4918228;29;20039;-60
2021/10/26 14:25:31;;;;;;;2.00;0.82;;;21.50;50.30;;;;;;4918178;29;20036;-62
2021/10/26 14:27:56;;;;;;;3.08;0.95;;;21.60;50.30;;;;;;4916783;29;20498;-61
2021/10/26 14:30:22;;;;;;;3.83;1.00;;;21.60;50.30;;;;;;4918238;29;20064;-61
2021/10/26 14:32:52;;;;;;;2.20;0.88;;;21.60;50.40;;;;;;4917914;29;20043;-61
2021/10/26 14:35:30;;;;;;;2.75;0.85;;;21.60;50.40;;;;;;4918060;29;20036;-61
2021/10/26 14:38:04;;;;;;;2.63;0.75;;;21.60;50.40;;;;;;4918056;29;20036;-61
2021/10/26 14:56:42;;;;;;;3.15;0.85;;;21.50;50.60;;;;;;4918047;29;20032;-60
2021/10/26 14:59:09;;;;;;;1.27;0.50;;;21.60;50.50;;;;;;4917709;29;20241;-61
2021/10/26 15:01:42;;;;;;;2.40;0.60;;;21.50;50.50;;;;;;4917499;29;20024;-60
2021/10/26 15:04:09;;;;;;;1.77;0.75;;;21.60;50.60;;;;;;4917445;29;20043;-60
2021/10/26 15:06:36;;;;;;;2.53;0.70;;;21.60;50.60;;;;;;4917911;29;20032;-61
2021/10/26 15:09:11;;;;;;;1.77;0.63;;;21.50;50.50;;;;;;4917170;29;20036;-60
2021/10/26 15:11:38;;;;;;;2.67;0.95;;;21.60;50.50;;;;;;4917815;29;20028;-61
2021/10/26 15:14:10;;;;;;;2.03;0.85;;;21.60;50.50;;;;;;4917654;29;20115;-60
2021/10/26 15:16:42;;;;;;;1.80;0.70;;;21.60;50.50;;;;;;4917415;29;20035;-60
2021/10/26 15:19:13;;;;;;;2.22;0.77;;;21.60;50.50;;;;;;4917349;29;20028;-62
2021/10/26 15:21:45;;;;;;;1.85;0.80;;;21.60;50.50;;;;;;4917577;29;20446;-61
2021/10/26 15:24:25;;;;;;;2.17;0.60;;;21.60;50.50;;;;;;4917090;29;20051;-61
2021/10/26 15:35:04;;;;;;;2.42;0.80;;;21.60;50.50;;;;;;4917187;29;20039;-60
2021/10/26 15:37:30;;;;;;;3.13;0.63;;;21.60;50.50;;;;;;4916939;29;20491;-60
2021/10/26 15:39:55;;;;;;;2.30;0.70;;;21.60;50.50;;;;;;4917284;29;20032;-60
2021/10/26 15:42:21;;;;;;;2.40;0.70;;;21.60;50.50;;;;;;4916816;29;20035;-59
2021/10/26 15:44:47;;;;;;;2.58;0.90;;;21.60;50.50;;;;;;4916957;29;20044;-60
2021/10/26 15:47:13;;;;;;;1.48;0.73;;;21.60;50.50;;;;;;4916972;29;20102;-60
2021/10/26 15:49:39;;;;;;;3.80;0.90;;;21.60;50.50;;;;;;4917013;29;20032;-59
2021/10/26 15:52:06;;;;;;;3.15;0.80;;;21.70;50.50;;;;;;4917087;29;20174;-59
2021/10/26 15:54:32;;;;;;;3.60;0.95;;;21.60;50.50;;;;;;4916955;29;20025;-61
2021/10/26 15:56:58;;;;;;;2.22;0.80;;;21.70;50.50;;;;;;4916747;29;20071;-60
2021/10/26 15:59:23;;;;;;;3.10;0.77;;;21.60;50.50;;;;;;4916869;29;20038;-59
